Time;durP1;ratioP1;P1;durP2;ratioP2;P2;SDS_P1;SDS_P2;PMS_P1;PMS_P2;Temp;Humidity;BMP_temperature;BMP_pressure;BME280_temperature;BME280_humidity;BME280_pressure;Samples;Min_cycle;Max_cycle;Signal;HPM_P1;HPM_P2
2024/02/14 00:01:11;;;;;;;21.92;14.55;;;;;;;12.60;82.85;101272.41;5052617;28;20033;-51
2024/02/14 00:03:38;;;;;;;23.20;15.20;;;;;;;12.78;83.35;101270.00;5052646;28;20033;-49
2024/02/14 00:06:04;;;;;;;26.67;15.95;;;;;;;12.48;83.13;101269.66;5052167;28;20501;-47
2024/02/14 00:08:29;;;;;;;25.85;16.15;;;;;;;12.88;82.10;101261.38;5052491;28;20029;-48
2024/02/14 00:10:55;;;;;;;23.83;16.00;;;;;;;12.95;81.93;101271.03;5051431;28;20041;-49
2024/02/14 00:13:20;;;;;;;26.95;16.17;;;;;;;13.07;81.85;101258.94;5052294;28;20119;-49
2024/02/14 00:15:46;;;;;;;24.42;16.55;;;;;;;13.11;81.39;101258.13;5051721;28;20120;-47
2024/02/14 00:18:12;;;;;;;23.67;16.38;;;;;;;13.16;81.52;101254.72;5051040;28;20041;-51
2024/02/14 00:20:38;;;;;;;27.05;17.10;;;;;;;13.00;82.16;101261.50;5051965;28;20036;-47
2024/02/14 00:23:04;;;;;;;27.40;17.73;;;;;;;12.92;83.12;101267.53;5052052;28;20419;-51
2024/02/14 00:25:30;;;;;;;27.20;18.52;;;;;;;13.11;82.11;101259.00;5052266;28;20033;-48
2024/02/14 00:27:55;;;;;;;31.63;19.25;;;;;;;12.93;82.93;101256.16;5051400;28;20041;-46
2024/02/14 00:30:22;;;;;;;31.60;18.95;;;;;;;13.11;82.67;101263.34;5051442;28;20041;-47
2024/02/14 00:32:48;;;;;;;32.35;19.85;;;;;;;12.75;84.62;101267.34;5051923;28;20041;-47
2024/02/14 00:35:13;;;;;;;31.33;19.60;;;;;;;12.60;85.57;101256.72;5051948;28;20050;-49
2024/02/14 00:37:39;;;;;;;30.88;19.45;;;;;;;12.59;84.13;101245.38;5050534;28;20041;-49
2024/02/14 00:40:05;;;;;;;30.05;20.10;;;;;;;12.93;83.26;101257.06;5050842;28;20384;-46
2024/02/14 00:42:31;;;;;;;30.70;19.25;;;;;;;13.00;82.96;101247.53;5052154;28;20037;-46
2024/02/14 00:44:56;;;;;;;31.95;19.45;;;;;;;12.96;83.60;101259.72;5051901;28;20056;-49
2024/02/14 00:47:22;;;;;;;27.10;18.25;;;;;;;13.30;82.24;101255.69;5051708;28;20041;-51
2024/02/14 00:49:47;;;;;;;28.88;18.45;;;;;;;12.94;84.06;101257.94;5050814;28;20037;-49
2024/02/14 00:52:12;;;;;;;29.48;18.25;;;;;;;13.20;83.25;101268.69;5053435;28;20072;-50
2024/02/14 00:54:38;;;;;;;27.30;17.80;;;;;;;13.17;83.46;101266.06;5052423;28;20025;-50
2024/02/14 00:57:03;;;;;;;27.20;17.38;;;;;;;13.29;82.49;101263.53;5051187;28;20029;-48
2024/02/14 00:59:28;;;;;;;26.77;17.85;;;;;;;13.19;83.42;101265.19;5051180;28;20037;-51
2024/02/14 01:01:54;;;;;;;27.67;17.27;;;;;;;13.02;83.48;101257.16;5051016;28;20040;-51
2024/02/14 01:04:19;;;;;;;26.05;16.95;;;;;;;13.05;83.88;101268.53;5051620;28;20112;-50
2024/02/14 01:06:44;;;;;;;25.55;17.05;;;;;;;13.06;83.91;101262.41;5050491;28;20527;-49
2024/02/14 01:09:10;;;;;;;28.35;17.45;;;;;;;12.95;83.90;101280.63;5050782;28;20063;-50
2024/02/14 01:11:38;;;;;;;28.05;16.88;;;;;;;13.45;82.97;101265.41;5051201;28;20040;-51
2024/02/14 01:14:04;;;;;;;30.48;17.67;;;;;;;13.20;83.70;101266.94;5050475;28;20098;-53
2024/02/14 01:16:29;;;;;;;29.48;17.30;;;;;;;13.22;83.76;101270.47;5051130;28;20083;-49
2024/02/14 01:18:54;;;;;;;26.88;17.08;;;;;;;13.14;84.79;101271.25;5050172;28;20446;-52
2024/02/14 01:21:20;;;;;;;25.73;16.65;;;;;;;13.53;82.59;101273.34;5050086;28;20041;-49
2024/02/14 01:23:45;;;;;;;27.92;16.13;;;;;;;13.11;84.08;101266.84;5049192;28;20040;-50
2024/02/14 01:26:10;;;;;;;24.42;15.48;;;;;;;13.45;83.09;101260.19;5050687;28;20033;-47
2024/02/14 01:28:35;;;;;;;23.02;14.98;;;;;;;13.07;83.96;101267.66;5050515;28;20044;-48
2024/02/14 01:31:01;;;;;;;25.88;15.55;;;;;;;12.86;85.86;101273.59;5049888;28;20090;-49
2024/02/14 01:33:26;;;;;;;26.05;15.57;;;;;;;13.57;83.54;101267.25;5050637;28;20120;-48
2024/02/14 01:35:51;;;;;;;27.48;15.70;;;;;;;13.36;84.64;101281.03;5050376;28;20040;-48
2024/02/14 01:38:17;;;;;;;28.15;15.68;;;;;;;13.18;85.17;101283.50;5050637;28;20033;-48
2024/02/14 01:40:44;;;;;;;24.80;15.90;;;;;;;13.65;83.31;101266.44;5049229;28;20029;-47
2024/02/14 01:43:10;;;;;;;26.67;16.05;;;;;;;13.36;83.74;101278.41;5050420;28;20082;-47
2024/02/14 01:45:35;;;;;;;26.80;16.20;;;;;;;13.68;82.72;101268.19;5050417;28;20090;-50
2024/02/14 01:48:01;;;;;;;25.17;15.75;;;;;;;13.76;82.13;101279.63;5049727;28;20512;-45
2024/02/14 01:50:30;;;;;;;23.83;14.95;;;;;;;13.49;83.86;101284.63;5050084;28;20056;-47
2024/02/14 01:52:59;;;;;;;24.08;15.02;;;;;;;13.34;84.02;101280.16;5050278;28;20040;-47
2024/02/14 01:55:26;;;;;;;23.13;14.43;;;;;;;13.28;84.21;101283.63;5054880;28;20041;-52
2024/02/14 01:57:52;;;;;;;19.42;13.30;;;;;;;13.39;84.44;101273.22;5052743;28;20048;-52
2024/02/14 02:00:19;;;;;;;25.08;14.07;;;;;;;13.50;84.95;101291.63;5050062;28;20040;-49
2024/02/14 02:02:46;;;;;;;19.25;12.45;;;;;;;13.58;83.99;101284.72;5049660;28;20037;-52
2024/02/14 02:05:12;;;;;;;22.55;12.55;;;;;;;13.15;85.10;101296.56;5050258;28;20709;-49
2024/02/14 02:07:39;;;;;;;19.17;11.93;;;;;;;13.21;85.63;101292.28;5050073;28;20036;-51
2024/02/14 02:10:06;;;;;;;19.05;11.75;;;;;;;13.10;85.67;101299.13;5049074;28;20116;-49
2024/02/14 02:12:32;;;;;;;20.38;11.93;;;;;;;13.00;86.59;101305.97;5050189;28;20029;-47
2024/02/14 02:14:58;;;;;;;18.35;11.90;;;;;;;13.44;85.23;101300.31;5048358;28;20151;-49
2024/02/14 02:17:24;;;;;;;16.55;11.18;;;;;;;13.43;85.34;101289.81;5049990;28;20513;-49
2024/02/14 02:19:49;;;;;;;17.70;11.35;;;;;;;13.54;85.88;101299.53;5048956;28;20032;-54
2024/02/14 02:22:14;;;;;;;17.83;10.85;;;;;;;13.46;85.55;101309.09;5051074;28;20032;-49
2024/02/14 02:24:40;;;;;;;17.73;11.55;;;;;;;13.74;84.20;101295.31;5051580;28;20029;-50
2024/02/14 02:27:05;;;;;;;20.98;11.23;;;;;;;13.02;86.40;101304.28;5050438;28;20116;-48
2024/02/14 02:29:32;;;;;;;18.02;11.10;;;;;;;13.51;85.15;101303.88;5050624;28;20037;-47
2024/02/14 02:31:57;;;;;;;19.85;10.98;;;;;;;13.55;86.15;101308.25;5051352;28;20063;-49
2024/02/14 02:34:23;;;;;;;19.88;10.60;;;;;;;13.47;85.38;101309.97;5051135;28;20028;-47
2024/02/14 02:36:50;;;;;;;19.23;10.10;;;;;;;13.49;86.64;101316.94;5049536;28;20036;-48
2024/02/14 02:39:15;;;;;;;20.30;10.55;;;;;;;13.52;86.58;101300.41;5049194;28;20068;-50
2024/02/14 02:41:41;;;;;;;22.17;11.18;;;;;;;13.39;86.82;101312.50;5049907;28;20064;-50
2024/02/14 02:44:06;;;;;;;22.73;11.32;;;;;;;13.46;87.69;101318.69;5049116;28;20036;-52
2024/02/14 02:46:32;;;;;;;24.33;11.13;;;;;;;13.16;87.99;101316.66;5049304;28;20040;-51
2024/02/14 02:48:58;;;;;;;23.83;11.20;;;;;;;13.53;87.18;101316.13;5048665;28;20098;-48
2024/02/14 02:51:24;;;;;;;25.23;11.15;;;;;;;13.48;86.03;101328.28;5049543;28;20120;-49
2024/02/14 02:53:49;;;;;;;25.73;10.98;;;;;;;13.54;86.06;101311.78;5048699;28;20040;-48
2024/02/14 02:56:14;;;;;;;26.48;11.07;;;;;;;13.52;87.62;101324.84;5050452;28;20067;-51
2024/02/14 02:58:40;;;;;;;31.75;11.00;;;;;;;13.52;87.74;101318.72;5051463;28;20061;-47
2024/02/14 03:01:09;;;;;;;23.98;9.75;;;;;;;13.18;88.57;101315.78;5050414;28;20424;-49
2024/02/14 03:03:36;;;;;;;25.50;9.98;;;;;;;13.98;85.80;101318.19;5053756;28;20534;-46
2024/02/14 03:06:03;;;;;;;22.50;9.93;;;;;;;13.99;86.02;101313.84;5052751;28;20502;-47
2024/02/14 03:08:30;;;;;;;26.25;9.43;;;;;;;13.89;86.01;101309.41;5053444;28;20037;-50
2024/02/14 03:10:59;;;;;;;29.42;8.88;;;;;;;13.59;87.46;101317.91;5052752;28;20123;-47
2024/02/14 03:13:24;;;;;;;29.30;8.93;;;;;;;13.99;86.21;101333.06;5053516;28;20495;-47
2024/02/14 03:15:50;;;;;;;23.55;7.72;;;;;;;13.85;87.36;101321.59;5052886;28;20041;-48
2024/02/14 03:18:15;;;;;;;28.02;7.53;;;;;;;13.62;87.75;101326.66;5053265;28;20037;-47
2024/02/14 03:20:40;;;;;;;31.77;8.43;;;;;;;13.74;87.40;101325.88;5052877;28;20029;-48
2024/02/14 03:23:06;;;;;;;30.77;7.30;;;;;;;13.65;87.88;101331.06;5052315;28;20033;-50
2024/02/14 03:25:31;;;;;;;27.65;7.10;;;;;;;14.21;86.25;101339.31;5052975;28;20032;-49
2024/02/14 03:27:58;;;;;;;26.35;7.05;;;;;;;13.99;86.10;101321.69;5051367;28;20112;-52
2024/02/14 03:30:23;;;;;;;24.40;6.90;;;;;;;14.18;85.37;101347.16;5051871;28;20484;-48
2024/02/14 03:32:50;;;;;;;23.98;6.50;;;;;;;13.94;86.78;101345.25;5052691;28;20083;-48
2024/02/14 03:35:16;;;;;;;22.30;6.53;;;;;;;14.12;86.11;101331.41;5053200;28;20054;-49
2024/02/14 03:37:42;;;;;;;19.92;6.65;;;;;;;13.85;86.44;101333.81;5053104;28;20124;-50
2024/02/14 03:40:08;;;;;;;25.40;6.85;;;;;;;14.24;85.70;101336.72;5051940;28;20021;-48
2024/02/14 03:42:34;;;;;;;30.42;7.03;;;;;;;14.20;84.34;101334.97;5052568;28;20037;-49
2024/02/14 03:45:05;;;;;;;29.48;7.00;;;;;;;13.98;85.92;101335.66;5052396;28;20487;-51
2024/02/14 03:47:32;;;;;;;25.75;6.97;;;;;;;13.76;86.71;101345.13;5052676;28;20037;-49
2024/02/14 03:49:58;;;;;;;27.13;6.53;;;;;;;13.98;86.90;101333.03;5051835;28;20029;-51
2024/02/14 03:52:24;;;;;;;24.92;7.20;;;;;;;14.09;85.84;101344.47;5052770;28;20033;-48
2024/02/14 03:54:50;;;;;;;23.77;6.78;;;;;;;13.96;86.73;101340.03;5052137;28;20032;-50
2024/02/14 03:57:15;;;;;;;27.25;6.88;;;;;;;14.20;85.81;101348.94;5052724;28;20032;-47
2024/02/14 03:59:40;;;;;;;26.08;8.05;;;;;;;13.83;87.09;101360.03;5052030;28;20029;-49
2024/02/14 04:02:09;;;;;;;28.75;7.07;;;;;;;13.93;87.18;101355.72;5052187;28;20555;-49
2024/02/14 04:04:39;;;;;;;25.10;6.45;;;;;;;14.28;85.01;101354.22;5052250;28;20118;-48
2024/02/14 04:07:04;;;;;;;27.88;7.60;;;;;;;14.06;86.29;101357.56;5052508;28;20033;-49
2024/02/14 04:09:32;;;;;;;22.17;6.93;;;;;;;14.11;85.33;101356.75;5052562;28;20424;-50
2024/02/14 04:11:57;;;;;;;23.38;7.50;;;;;;;14.11;85.23;101358.47;5051913;28;20403;-52
2024/02/14 04:14:22;;;;;;;23.45;7.10;;;;;;;14.08;85.90;101358.47;5052531;28;20111;-49
2024/02/14 04:16:48;;;;;;;25.23;7.20;;;;;;;13.78;88.05;101373.09;5051511;28;20033;-51
2024/02/14 04:19:17;;;;;;;22.10;6.97;;;;;;;13.75;87.93;101365.22;5051801;28;20039;-50
2024/02/14 04:21:42;;;;;;;19.65;6.95;;;;;;;13.91;87.47;101374.06;5051126;28;20505;-51
2024/02/14 04:24:08;;;;;;;21.40;6.18;;;;;;;13.99;86.77;101364.53;5051698;28;20029;-48
2024/02/14 04:26:34;;;;;;;25.17;7.38;;;;;;;13.72;87.65;101359.09;5051986;28;20040;-50
2024/02/14 04:28:59;;;;;;;26.23;7.60;;;;;;;13.92;86.76;101373.19;5051313;28;20029;-48
2024/02/14 04:31:26;;;;;;;22.05;6.78;;;;;;;14.04;86.94;101377.66;5052254;28;20055;-49
2024/02/14 04:33:53;;;;;;;22.83;6.60;;;;;;;14.26;86.12;101374.34;5051855;28;20037;-48
2024/02/14 04:36:22;;;;;;;27.15;6.70;;;;;;;14.31;86.43;101375.22;5052360;28;20025;-47
2024/02/14 04:38:49;;;;;;;21.27;6.53;;;;;;;14.18;87.16;101378.63;5051028;28;20494;-49
2024/02/14 04:41:15;;;;;;;24.52;7.05;;;;;;;14.04;87.23;101382.91;5052020;28;20033;-47
2024/02/14 04:43:40;;;;;;;24.45;7.40;;;;;;;14.35;85.69;101377.00;5051600;28;20103;-51
2024/02/14 04:46:07;;;;;;;24.63;7.20;;;;;;;13.96;88.37;101380.25;5051026;28;20041;-50
2024/02/14 04:48:33;;;;;;;25.08;7.05;;;;;;;13.94;88.99;101378.47;5051477;28;20037;-49
2024/02/14 04:50:58;;;;;;;25.80;7.30;;;;;;;14.41;86.10;101386.69;5050983;28;20384;-48
2024/02/14 04:53:24;;;;;;;23.33;7.53;;;;;;;14.36;86.51;101397.13;5051723;28;20037;-51
2024/02/14 04:55:50;;;;;;;20.77;6.65;;;;;;;14.14;86.64;101396.09;5050837;28;20047;-49
2024/02/14 04:58:15;;;;;;;25.17;7.28;;;;;;;14.24;85.92;101397.03;5051282;28;20032;-47
2024/02/14 05:00:40;;;;;;;23.25;6.43;;;;;;;14.43;85.44;101392.81;5051029;28;20025;-50
2024/02/14 05:03:06;;;;;;;18.02;6.63;;;;;;;14.50;85.08;101392.00;5050799;28;20040;-50
2024/02/14 05:05:33;;;;;;;18.38;6.55;;;;;;;14.41;85.79;101403.28;5051307;28;20029;-47
2024/02/14 05:07:58;;;;;;;22.15;6.68;;;;;;;14.20;86.80;101392.66;5050490;28;20071;-48
2024/02/14 05:10:24;;;;;;;18.42;6.32;;;;;;;14.74;85.20;101386.88;5050919;28;20029;-49
2024/02/14 05:12:49;;;;;;;20.08;6.32;;;;;;;13.86;88.04;101401.97;5050736;28;20494;-49
2024/02/14 05:15:15;;;;;;;17.55;6.78;;;;;;;13.91;88.67;101405.50;5050984;28;20507;-50
2024/02/14 05:17:44;;;;;;;27.10;7.15;;;;;;;14.39;86.31;101407.69;5051286;28;20068;-51
2024/02/14 05:20:09;;;;;;;21.15;7.18;;;;;;;14.27;86.74;101396.19;5050274;28;20125;-49
2024/02/14 05:22:37;;;;;;;18.67;6.50;;;;;;;14.36;86.16;101404.97;5050971;28;20120;-50
2024/02/14 05:25:04;;;;;;;21.20;7.10;;;;;;;14.45;86.07;101404.22;5049860;28;20037;-47
2024/02/14 05:27:29;;;;;;;21.38;6.57;;;;;;;14.48;86.70;101399.84;5050769;28;20032;-48
2024/02/14 05:29:54;;;;;;;17.05;5.82;;;;;;;14.41;86.31;101408.53;5050003;28;20033;-53
2024/02/14 05:32:20;;;;;;;24.08;6.13;;;;;;;14.84;84.79;101411.41;5050842;28;20029;-46
2024/02/14 05:34:45;;;;;;;23.08;5.82;;;;;;;14.45;85.82;101407.72;5050588;28;20559;-48
2024/02/14 05:37:10;;;;;;;16.85;5.53;;;;;;;14.59;86.60;101413.91;5051106;28;20037;-48
2024/02/14 05:39:36;;;;;;;17.13;5.35;;;;;;;14.27;86.44;101418.06;5050948;28;20025;-49
2024/02/14 05:42:02;;;;;;;21.10;5.70;;;;;;;14.61;85.11;101412.16;5050272;28;20162;-51
2024/02/14 05:44:30;;;;;;;21.85;5.25;;;;;;;14.72;85.46;101413.97;5050399;28;20033;-50
2024/02/14 05:46:55;;;;;;;18.08;5.60;;;;;;;14.90;84.31;101412.31;5050041;28;20048;-50
2024/02/14 05:49:21;;;;;;;17.98;5.65;;;;;;;14.48;85.62;101412.97;5048872;28;20402;-54
2024/02/14 05:51:47;;;;;;;23.85;6.63;;;;;;;14.65;85.43;101409.53;5049966;28;20525;-48
2024/02/14 05:54:12;;;;;;;26.30;6.97;;;;;;;14.42;86.10;101420.78;5050429;28;20037;-50
2024/02/14 05:56:37;;;;;;;23.92;7.25;;;;;;;14.40;86.94;101417.28;5050314;28;20037;-49
2024/02/14 05:59:03;;;;;;;21.80;7.07;;;;;;;14.81;85.48;101419.28;5049220;28;20098;-48
2024/02/14 06:01:28;;;;;;;23.50;7.43;;;;;;;14.44;86.63;101418.19;5050271;28;20478;-47
2024/02/14 06:03:54;;;;;;;19.58;7.93;;;;;;;14.62;85.84;101420.91;5049904;28;20037;-51
2024/02/14 06:06:19;;;;;;;26.42;8.20;;;;;;;14.54;86.54;101427.84;5050033;28;20025;-48
2024/02/14 06:08:44;;;;;;;25.85;9.10;;;;;;;14.66;85.05;101432.28;5049169;28;20102;-51
2024/02/14 06:11:10;;;;;;;28.40;9.05;;;;;;;14.33;87.00;101436.47;5050272;28;20120;-50
2024/02/14 06:13:38;;;;;;;31.63;9.48;;;;;;;14.73;85.22;101423.59;5050026;28;20035;-50
2024/02/14 06:16:04;;;;;;;26.80;9.57;;;;;;;14.86;83.88;101428.03;5049848;28;20043;-49
2024/02/14 06:18:29;;;;;;;24.30;8.80;;;;;;;14.81;84.87;101428.03;5050184;28;20064;-50
2024/02/14 06:20:55;;;;;;;25.48;9.25;;;;;;;14.74;84.43;101435.84;5049579;28;20067;-48
2024/02/14 06:23:20;;;;;;;26.08;9.75;;;;;;;14.60;85.33;101431.41;5050223;28;20095;-49
2024/02/14 06:25:45;;;;;;;22.05;9.88;;;;;;;14.88;85.02;101434.19;5049906;28;20136;-49
2024/02/14 06:28:10;;;;;;;22.35;9.38;;;;;;;14.82;84.83;101437.63;5050705;28;20044;-47
2024/02/14 06:30:36;;;;;;;25.45;9.68;;;;;;;14.76;84.35;101429.72;5050262;28;20036;-50
2024/02/14 06:33:02;;;;;;;20.58;9.75;;;;;;;14.77;85.13;101436.72;5050480;28;20086;-51
2024/02/14 06:35:28;;;;;;;26.33;10.45;;;;;;;14.85;85.11;101448.16;5050035;28;20025;-47
2024/02/14 06:37:53;;;;;;;28.70;10.35;;;;;;;14.87;84.45;101445.56;5048967;28;20110;-49
2024/02/14 06:40:19;;;;;;;23.25;10.70;;;;;;;14.85;84.52;101442.03;5048229;28;20502;-51
2024/02/14 06:42:44;;;;;;;25.67;10.95;;;;;;;14.87;85.26;101441.19;5048978;28;20067;-52
2024/02/14 06:45:10;;;;;;;21.15;10.55;;;;;;;15.10;83.42;101441.28;5049514;28;20450;-49
2024/02/14 06:47:35;;;;;;;27.42;11.15;;;;;;;14.20;86.54;101452.97;5049215;28;20029;-48
2024/02/14 06:50:00;;;;;;;26.85;11.93;;;;;;;14.64;86.01;101457.69;5048452;28;20033;-51
2024/02/14 06:52:26;;;;;;;25.70;11.18;;;;;;;14.75;85.19;101450.75;5049210;28;20033;-50
2024/02/14 06:54:51;;;;;;;26.30;10.85;;;;;;;14.79;83.91;101456.00;5048918;28;20037;-49
2024/02/14 06:57:17;;;;;;;24.27;10.90;;;;;;;14.67;84.65;101455.94;5049495;28;20021;-48
2024/02/14 06:59:43;;;;;;;27.25;11.18;;;;;;;14.90;84.07;101459.56;5048766;28;20407;-49
2024/02/14 07:02:08;;;;;;;23.02;11.48;;;;;;;14.27;86.65;101465.25;5048906;28;20029;-49
2024/02/14 07:04:33;;;;;;;28.35;11.00;;;;;;;14.72;84.98;101461.19;5049217;28;20044;-49
2024/02/14 07:07:00;;;;;;;23.80;10.60;;;;;;;14.87;84.28;101458.69;5048707;28;20057;-52
2024/02/14 07:09:25;;;;;;;19.40;10.38;;;;;;;15.01;83.77;101468.34;5048699;28;20025;-51
2024/02/14 07:11:53;;;;;;;19.88;10.30;;;;;;;14.58;85.21;101468.97;5047414;28;20039;-49
2024/02/14 07:14:19;;;;;;;22.58;10.95;;;;;;;14.83;84.01;101475.25;5049267;28;20052;-50
2024/02/14 07:16:44;;;;;;;22.60;9.88;;;;;;;15.12;83.95;101475.44;5048689;28;20044;-50
2024/02/14 07:19:09;;;;;;;22.30;10.57;;;;;;;14.83;84.50;101475.25;5048799;28;20534;-51
2024/02/14 07:21:34;;;;;;;22.35;10.30;;;;;;;14.87;84.23;101467.44;5049259;28;20028;-50
2024/02/14 07:24:00;;;;;;;22.10;10.23;;;;;;;14.70;84.27;101469.06;5048652;28;20029;-49
2024/02/14 07:26:25;;;;;;;22.90;10.30;;;;;;;15.08;83.10;101471.88;5049268;28;20025;-48
2024/02/14 07:28:51;;;;;;;21.70;9.77;;;;;;;14.90;84.87;101477.06;5048069;28;20041;-50
2024/02/14 07:31:16;;;;;;;22.08;9.75;;;;;;;14.85;84.46;101479.66;5049178;28;20038;-48
2024/02/14 07:33:43;;;;;;;19.98;9.80;;;;;;;14.95;83.44;101480.56;5049204;28;20029;-48
2024/02/14 07:36:09;;;;;;;18.48;9.55;;;;;;;14.83;84.34;101486.63;5048679;28;20033;-49
2024/02/14 07:38:34;;;;;;;15.18;9.25;;;;;;;15.42;82.56;101486.06;5048688;28;20057;-49
2024/02/14 07:40:59;;;;;;;16.65;9.18;;;;;;;14.93;84.06;101490.22;5048205;28;20122;-51
2024/02/14 07:43:25;;;;;;;17.42;9.13;;;;;;;15.28;83.05;101486.00;5049043;28;20033;-52
2024/02/14 07:45:50;;;;;;;17.58;9.18;;;;;;;15.28;82.27;101488.63;5048841;28;20115;-47
2024/02/14 07:48:15;;;;;;;17.17;8.75;;;;;;;15.16;82.38;101491.19;5050833;28;20045;-47
2024/02/14 07:50:40;;;;;;;17.77;9.20;;;;;;;15.06;83.21;101502.53;5052436;28;20702;-48
2024/02/14 07:53:06;;;;;;;17.73;8.77;;;;;;;15.31;83.08;101507.00;5052306;28;20116;-51
2024/02/14 07:55:31;;;;;;;19.08;9.10;;;;;;;14.49;86.41;101503.94;5052907;28;20039;-46
2024/02/14 07:57:57;;;;;;;19.50;10.20;;;;;;;15.08;84.14;101499.91;5052750;28;20037;-48
2024/02/14 08:00:22;;;;;;;16.67;9.23;;;;;;;14.57;86.36;101510.13;5053145;28;20033;-51
2024/02/14 08:02:51;;;;;;;21.13;10.10;;;;;;;15.02;84.86;101503.38;5052647;28;20463;-48
2024/02/14 08:05:16;;;;;;;18.05;8.95;;;;;;;15.24;83.85;101509.63;5052517;28;20498;-49
2024/02/14 08:07:42;;;;;;;16.40;9.35;;;;;;;14.92;85.11;101501.56;5052551;28;20037;-49
2024/02/14 08:10:08;;;;;;;17.30;9.18;;;;;;;15.30;83.72;101502.66;5051838;28;20051;-49
2024/02/14 08:12:34;;;;;;;18.05;9.07;;;;;;;15.29;83.51;101502.63;5052686;28;20033;-53
2024/02/14 08:15:04;;;;;;;16.52;9.00;;;;;;;15.09;83.78;101506.91;5052150;28;20060;-47
2024/02/14 08:17:29;;;;;;;11.80;7.68;;;;;;;15.28;83.05;101504.38;5052498;28;20029;-47
2024/02/14 08:19:54;;;;;;;13.25;8.27;;;;;;;15.20;83.07;101511.34;5051281;28;20111;-52
2024/02/14 08:22:20;;;;;;;12.68;8.65;;;;;;;14.82;84.65;101510.28;5052363;28;20495;-48
2024/02/14 08:24:46;;;;;;;14.70;9.35;;;;;;;14.76;84.68;101507.63;5051545;28;20033;-51
2024/02/14 08:27:11;;;;;;;13.63;9.02;;;;;;;15.14;83.86;101513.06;5051941;28;20033;-52
2024/02/14 08:29:36;;;;;;;15.35;9.40;;;;;;;14.68;84.85;101520.69;5051634;28;20400;-50
2024/02/14 08:32:03;;;;;;;13.77;10.23;;;;;;;14.78;84.73;101522.50;5056241;28;20039;-51
2024/02/14 08:34:29;;;;;;;14.63;10.38;;;;;;;14.85;84.54;101519.03;5052252;28;20025;-51
2024/02/14 08:36:54;;;;;;;16.17;10.93;;;;;;;14.39;85.72;101519.59;5051626;28;20040;-50
2024/02/14 08:39:19;;;;;;;16.70;11.20;;;;;;;14.34;87.12;101529.09;5051558;28;20521;-50
2024/02/14 08:41:46;;;;;;;20.02;12.30;;;;;;;14.94;84.48;101523.47;5051405;28;20538;-52
2024/02/14 08:44:14;;;;;;;17.30;11.60;;;;;;;14.72;85.35;101521.56;5051903;28;20037;-50
2024/02/14 08:46:42;;;;;;;19.73;11.80;;;;;;;14.56;85.37;101525.84;5051743;28;20033;-49
2024/02/14 08:49:08;;;;;;;16.92;11.65;;;;;;;14.64;85.45;101534.63;5050410;28;20495;-51
2024/02/14 08:51:35;;;;;;;17.70;12.25;;;;;;;14.95;85.03;101538.34;5051663;28;20115;-50
2024/02/14 08:54:04;;;;;;;19.10;12.13;;;;;;;14.84;84.70;101534.78;5051284;28;20450;-50
2024/02/14 08:56:32;;;;;;;17.75;11.68;;;;;;;15.03;84.16;101539.28;5052126;28;20033;-50
2024/02/14 08:58:58;;;;;;;19.48;11.90;;;;;;;14.91;83.93;101549.69;5049481;28;20040;-49
2024/02/14 09:01:23;;;;;;;18.90;11.70;;;;;;;14.88;84.61;101542.66;5051540;28;20108;-49
2024/02/14 09:03:48;;;;;;;19.65;12.13;;;;;;;14.77;85.01;101548.72;5050928;28;20060;-48
2024/02/14 09:06:15;;;;;;;19.60;11.57;;;;;;;14.81;84.53;101553.16;5051336;28;20137;-52
2024/02/14 09:08:41;;;;;;;18.25;11.32;;;;;;;15.18;83.57;101547.25;5050902;28;20037;-48
2024/02/14 09:11:06;;;;;;;17.75;11.30;;;;;;;15.00;84.74;101544.53;5051000;28;20075;-53
2024/02/14 09:13:31;;;;;;;17.45;11.45;;;;;;;15.12;84.05;101541.09;5051596;28;20119;-48
2024/02/14 09:15:57;;;;;;;21.75;12.15;;;;;;;14.86;84.63;101548.78;5051089;28;20499;-51
2024/02/14 09:18:24;;;;;;;21.17;11.65;;;;;;;15.01;84.18;101544.50;5051203;28;20031;-49
2024/02/14 09:20:50;;;;;;;19.15;11.60;;;;;;;15.09;84.16;101544.56;5050384;28;20487;-50
2024/02/14 09:23:19;;;;;;;18.55;11.38;;;;;;;15.13;84.40;101542.81;5051066;28;20028;-48
2024/02/14 09:25:44;;;;;;;17.95;10.60;;;;;;;15.23;83.74;101552.53;5050795;28;20044;-46
2024/02/14 09:28:10;;;;;;;17.25;10.18;;;;;;;14.91;84.86;101560.19;5051052;28;20677;-48
2024/02/14 09:30:35;;;;;;;15.07;9.40;;;;;;;14.47;85.97;101563.38;5050524;28;20518;-49
2024/02/14 09:33:00;;;;;;;13.93;9.43;;;;;;;15.10;85.03;101558.56;5050240;28;20403;-48
2024/02/14 09:35:26;;;;;;;16.50;10.15;;;;;;;14.69;85.98;101564.44;5050970;28;20043;-49
2024/02/14 09:37:51;;;;;;;16.50;10.35;;;;;;;15.12;84.76;101551.59;5050117;28;20203;-52
2024/02/14 09:40:16;;;;;;;16.13;10.60;;;;;;;14.98;84.78;101559.38;5050522;28;20040;-50
2024/02/14 09:42:54;;;;;;;16.67;10.85;;;;;;;15.02;84.85;101561.13;5050682;28;20056;-50
2024/02/14 09:45:20;;;;;;;15.27;10.63;;;;;;;14.58;86.68;101563.44;5050745;28;20037;-50
2024/02/14 09:47:46;;;;;;;15.93;11.02;;;;;;;14.78;86.56;101556.63;5050627;28;20566;-52
2024/02/14 09:50:12;;;;;;;18.40;11.98;;;;;;;14.34;87.00;101566.72;5050464;28;20040;-49
2024/02/14 09:52:38;;;;;;;17.80;12.18;;;;;;;15.10;85.66;101548.06;5049236;28;20055;-50
2024/02/14 09:55:06;;;;;;;18.73;11.95;;;;;;;15.10;85.66;101550.69;5050317;28;20084;-49
2024/02/14 09:57:32;;;;;;;17.08;11.30;;;;;;;14.72;86.67;101561.81;5050568;28;20056;-50
2024/02/14 10:00:00;;;;;;;19.27;11.45;;;;;;;15.16;85.59;101562.13;5049440;28;20652;-50
2024/02/14 10:02:25;;;;;;;18.73;11.90;;;;;;;14.94;85.60;101560.25;5050158;28;20041;-49
2024/02/14 10:04:50;;;;;;;15.10;10.50;;;;;;;15.38;84.34;101549.94;5050181;28;20121;-48
2024/02/14 10:07:15;;;;;;;15.95;10.48;;;;;;;15.41;83.68;101558.75;5050533;28;20064;-49
2024/02/14 10:09:41;;;;;;;16.48;10.40;;;;;;;15.45;83.84;101554.38;5049644;28;20029;-50
2024/02/14 10:12:08;;;;;;;16.77;11.02;;;;;;;15.33;84.63;101551.69;5050440;28;20028;-49
2024/02/14 10:14:35;;;;;;;15.65;10.63;;;;;;;15.79;83.26;101553.66;5050951;28;20601;-49
2024/02/14 10:17:00;;;;;;;15.73;10.45;;;;;;;15.64;83.07;101568.50;5050239;28;20116;-47
2024/02/14 10:19:25;;;;;;;16.15;10.52;;;;;;;15.80;82.59;101567.66;5050493;28;20060;-47
2024/02/14 10:21:59;;;;;;;16.13;10.15;;;;;;;15.01;84.10;101568.13;5049942;28;20112;-47
2024/02/14 10:24:28;;;;;;;13.32;9.23;;;;;;;15.58;83.25;101555.31;5050078;28;20029;-51
2024/02/14 10:26:54;;;;;;;12.48;8.45;;;;;;;15.22;84.27;101556.00;5049159;28;20419;-48
2024/02/14 10:29:20;;;;;;;10.35;7.60;;;;;;;15.44;84.36;101558.75;5049215;28;20025;-53
2024/02/14 10:31:46;;;;;;;10.98;7.20;;;;;;;14.97;85.52;101558.50;5049167;28;20040;-47
2024/02/14 10:34:12;;;;;;;8.48;6.60;;;;;;;15.33;85.06;101552.56;5050045;28;20025;-53
2024/02/14 10:36:40;;;;;;;9.73;6.68;;;;;;;15.40;85.14;101556.97;5049739;28;20021;-47
2024/02/14 10:39:07;;;;;;;8.10;5.97;;;;;;;15.14;86.14;101557.72;5049002;28;20094;-50
2024/02/14 10:41:35;;;;;;;8.32;5.93;;;;;;;15.36;84.36;101554.34;5049807;28;20056;-49
2024/02/14 10:44:05;;;;;;;8.25;6.00;;;;;;;15.82;83.45;101547.53;5048961;28;20079;-48
2024/02/14 10:46:33;;;;;;;8.32;6.05;;;;;;;15.47;84.92;101551.75;5049417;28;20549;-49
2024/02/14 10:49:02;;;;;;;8.43;5.88;;;;;;;15.43;84.66;101553.47;5048376;28;20037;-49
2024/02/14 10:51:31;;;;;;;9.38;6.13;;;;;;;15.17;85.81;101550.75;5049460;28;20030;-49
2024/02/14 10:53:59;;;;;;;8.65;5.85;;;;;;;15.56;84.24;101546.53;5049002;28;20658;-52
2024/02/14 10:56:28;;;;;;;8.80;6.10;;;;;;;15.79;83.89;101545.78;5048078;28;20078;-48
2024/02/14 10:58:57;;;;;;;7.68;5.97;;;;;;;15.42;85.52;101550.00;5048556;28;20414;-47
2024/02/14 11:01:24;;;;;;;9.13;6.60;;;;;;;15.76;84.50;101558.91;5049141;28;20116;-49
2024/02/14 11:03:50;;;;;;;9.65;6.60;;;;;;;15.48;84.45;101557.03;5048858;28;20033;-49
2024/02/14 11:06:19;;;;;;;11.35;7.20;;;;;;;15.37;85.32;101550.81;5049538;28;20047;-48
2024/02/14 11:08:58;;;;;;;10.20;7.07;;;;;;;15.87;84.08;101548.41;5048117;28;20033;-54